Potash Point, Vermont
Current Conditions -  °F | °C
As of 3:55 AM on Wednesday 22 Oct 2014 (Local Time) from K6B0 Reporting Station
Overcast Overcast  
Wind Chill:   Ceiling: 300
Heat Index:   Visibility: 7mi
Dew Point:   Wind: 9mph
Humidity: 100%   Direction: 360°N
Pressure: 30.07"   Gusts: NA
Location:  44.0804°N, 73.3324°W
Report Text: K6B0 220755Z AUTO 36008KT 7SM OVC003 08/08 A3007 RMK AO2 T00820082
Loading
Personal Weather Stations






























Interactive Weather Map
Tropical Storm Tracking
New forecast layout! Learn more

10-Day Weather Forecast

Advertisements
Track Severe Weather on mobile